Time;durP1;ratioP1;P1;durP2;ratioP2;P2;SDS_P1;SDS_P2;PMS_P1;PMS_P2;Temp;Humidity;BMP_temperature;BMP_pressure;BME280_temperature;BME280_humidity;BME280_pressure;Samples;Min_cycle;Max_cycle;Signal;HPM_P1;HPM_P2
2022/01/17 00:00:06;;;;;;;3.57;2.00;;;2.60;98.00;;;;;;5091767;28;20499;-65
2022/01/17 00:02:34;;;;;;;2.37;2.17;;;2.70;98.00;;;;;;5091272;28;20520;-66
2022/01/17 00:05:03;;;;;;;1.20;1.10;;;2.60;98.00;;;;;;5090548;28;20503;-65
2022/01/17 00:07:30;;;;;;;5.13;3.33;;;2.60;98.00;;;;;;5091408;28;20550;-64
2022/01/17 00:09:59;;;;;;;1.10;1.00;;;2.70;98.00;;;;;;5091668;28;20530;-65
2022/01/17 00:12:26;;;;;;;1.73;1.70;;;2.70;98.00;;;;;;5091894;28;20488;-65
2022/01/17 00:14:55;;;;;;;1.73;1.63;;;2.80;98.00;;;;;;5091757;28;20547;-66
2022/01/17 00:17:33;;;;;;;2.40;1.87;;;3.10;98.00;;;;;;5091849;28;20535;-65
2022/01/17 00:20:09;;;;;;;20.10;3.67;;;3.00;98.00;;;;;;5091756;28;20538;-65
2022/01/17 00:22:38;;;;;;;1.70;1.60;;;3.00;98.00;;;;;;5091756;28;20491;-64
2022/01/17 00:25:06;;;;;;;1.63;1.63;;;2.90;98.00;;;;;;5091804;28;20460;-64
2022/01/17 00:27:35;;;;;;;1.93;1.57;;;2.80;98.00;;;;;;5091866;28;20554;-65
2022/01/17 00:30:03;;;;;;;2.70;1.87;;;2.80;98.00;;;;;;5091650;28;20451;-64
2022/01/17 00:32:30;;;;;;;1.50;1.40;;;2.80;98.00;;;;;;5091737;28;20481;-65
2022/01/17 00:34:57;;;;;;;6.73;3.90;;;2.70;98.00;;;;;;5091804;28;20460;-66
2022/01/17 00:37:26;;;;;;;1.77;1.50;;;2.70;98.00;;;;;;5091593;28;20451;-66
2022/01/17 00:39:54;;;;;;;1.90;1.50;;;2.70;98.00;;;;;;5091606;28;20581;-64
2022/01/17 00:42:21;;;;;;;3.33;2.83;;;2.70;98.00;;;;;;5091760;28;21009;-66
2022/01/17 00:44:49;;;;;;;1.10;1.00;;;2.60;98.00;;;;;;5091640;28;20542;-64
2022/01/17 00:47:16;;;;;;;1.63;1.53;;;2.60;98.00;;;;;;5091447;28;20779;-65
2022/01/17 00:49:43;;;;;;;1.40;1.30;;;2.60;98.00;;;;;;5091466;28;20555;-65
2022/01/17 00:52:11;;;;;;;1.50;1.40;;;2.60;98.00;;;;;;5091765;28;20524;-64
2022/01/17 00:54:39;;;;;;;4.63;2.80;;;2.60;98.00;;;;;;5091397;28;20491;-64
2022/01/17 00:57:06;;;;;;;2.37;2.23;;;2.70;98.00;;;;;;5091629;28;20459;-65
2022/01/17 00:59:33;;;;;;;3.20;2.67;;;2.80;98.00;;;;;;5091158;28;20538;-65
2022/01/17 01:02:00;;;;;;;3.30;2.13;;;3.00;98.00;;;;;;5091171;28;21001;-65
2022/01/17 01:04:27;;;;;;;2.37;2.17;;;2.90;98.00;;;;;;5091252;28;21126;-64
2022/01/17 01:06:54;;;;;;;1.80;1.73;;;2.90;98.00;;;;;;5091163;28;20495;-64
2022/01/17 01:09:22;;;;;;;2.90;2.13;;;2.80;98.00;;;;;;5091038;28;20483;-66
2022/01/17 01:11:50;;;;;;;2.40;2.03;;;2.80;98.00;;;;;;5091130;28;20501;-64
2022/01/17 01:14:17;;;;;;;1.40;1.33;;;2.90;98.00;;;;;;5091171;28;20487;-64
2022/01/17 01:16:44;;;;;;;1.50;1.40;;;2.90;98.00;;;;;;5091087;28;20514;-65
2022/01/17 01:30:16;;;;;;;1.50;1.40;;;3.30;98.00;;;;;;5093631;28;20585;-64
2022/01/17 01:32:48;;;;;;;6.40;2.43;;;3.10;98.00;;;;;;5094564;28;21031;-65
2022/01/17 01:35:18;;;;;;;3.83;1.73;;;3.00;98.00;;;;;;5094412;28;20470;-65
2022/01/17 01:37:47;;;;;;;5.70;2.27;;;3.00;98.00;;;;;;5094457;28;20459;-66
2022/01/17 01:40:15;;;;;;;2.17;2.07;;;2.90;98.00;;;;;;5094527;28;20478;-64
2022/01/17 01:42:43;;;;;;;2.07;1.57;;;2.90;98.00;;;;;;5093271;28;20484;-65
2022/01/17 01:45:12;;;;;;;4.30;2.43;;;2.90;98.00;;;;;;5093072;28;20466;-64
2022/01/17 01:47:40;;;;;;;2.23;2.03;;;2.90;98.00;;;;;;5094143;28;20464;-65
2022/01/17 01:50:10;;;;;;;2.57;2.30;;;2.90;98.00;;;;;;5094120;28;20452;-66
2022/01/17 01:52:38;;;;;;;2.33;1.37;;;3.00;98.00;;;;;;5094254;28;20458;-66
2022/01/17 01:55:06;;;;;;;1.67;1.47;;;3.00;98.00;;;;;;5094023;28;20556;-66
2022/01/17 01:57:33;;;;;;;1.20;1.10;;;3.00;98.00;;;;;;5094279;28;20561;-65
2022/01/17 02:00:02;;;;;;;1.20;1.10;;;3.10;98.00;;;;;;5094058;28;20524;-64
2022/01/17 02:02:34;;;;;;;1.10;1.10;;;3.20;98.00;;;;;;5093980;28;20962;-64
2022/01/17 02:05:01;;;;;;;1.10;1.00;;;3.20;98.00;;;;;;5092731;28;20490;-64
2022/01/17 02:07:28;;;;;;;1.20;1.17;;;3.30;98.00;;;;;;5094118;28;20467;-64
2022/01/17 02:09:55;;;;;;;1.10;1.10;;;3.40;98.00;;;;;;5093798;28;20912;-64
2022/01/17 02:12:23;;;;;;;1.60;1.57;;;3.50;98.00;;;;;;5094002;28;20483;-64
2022/01/17 02:14:50;;;;;;;1.10;1.10;;;3.40;98.00;;;;;;5093824;28;20960;-66
2022/01/17 02:17:20;;;;;;;1.60;1.60;;;3.30;98.00;;;;;;5094165;28;20514;-64
2022/01/17 02:19:53;;;;;;;1.47;1.33;;;3.30;98.00;;;;;;5093597;28;20456;-65
2022/01/17 02:22:20;;;;;;;1.43;1.37;;;3.30;98.00;;;;;;5093789;28;20491;-65
2022/01/17 02:24:47;;;;;;;2.10;1.90;;;3.40;98.00;;;;;;5093164;28;20527;-65
2022/01/17 02:27:14;;;;;;;1.90;1.60;;;3.40;98.00;;;;;;5093685;28;20502;-65
2022/01/17 02:29:42;;;;;;;1.50;1.40;;;3.40;98.00;;;;;;5093321;28;20845;-64
2022/01/17 02:32:09;;;;;;;2.30;2.10;;;3.40;98.00;;;;;;5091751;28;20452;-65
2022/01/17 02:34:41;;;;;;;2.10;2.00;;;3.50;98.00;;;;;;5093220;28;20500;-64
2022/01/17 02:37:10;;;;;;;1.37;1.37;;;3.50;98.00;;;;;;5093463;28;20810;-64
2022/01/17 02:39:38;;;;;;;2.50;2.30;;;3.40;98.00;;;;;;5091961;28;20951;-64
2022/01/17 02:42:06;;;;;;;1.10;1.00;;;3.40;98.00;;;;;;5093070;28;20570;-64
2022/01/17 02:44:33;;;;;;;1.20;1.17;;;3.40;98.00;;;;;;5093005;28;20523;-64
2022/01/17 02:47:02;;;;;;;1.77;1.70;;;3.40;98.00;;;;;;5093053;28;20531;-65
2022/01/17 02:49:29;;;;;;;1.10;1.10;;;3.40;98.00;;;;;;5092814;28;20452;-65
2022/01/17 02:51:56;;;;;;;1.30;1.23;;;3.30;98.00;;;;;;5093053;28;20839;-65
2022/01/17 02:54:24;;;;;;;2.60;2.40;;;3.30;98.00;;;;;;5092907;28;20543;-64
2022/01/17 02:56:51;;;;;;;1.47;1.37;;;3.30;98.00;;;;;;5093052;28;20492;-66
2022/01/17 02:59:18;;;;;;;1.80;1.50;;;3.30;98.00;;;;;;5092776;28;20460;-64
2022/01/17 03:01:45;;;;;;;2.33;1.40;;;3.30;98.00;;;;;;5091675;28;20520;-67
2022/01/17 03:04:12;;;;;;;1.77;1.57;;;3.30;98.00;;;;;;5092631;28;20560;-64
2022/01/17 03:06:39;;;;;;;2.07;1.73;;;3.20;98.00;;;;;;5092680;28;20890;-65
2022/01/17 03:09:06;;;;;;;1.73;1.63;;;3.20;98.00;;;;;;5092533;28;20495;-65
2022/01/17 03:11:34;;;;;;;1.53;1.47;;;3.20;98.00;;;;;;5092668;28;20972;-64
2022/01/17 03:14:01;;;;;;;2.17;1.57;;;3.10;98.00;;;;;;5091789;28;20480;-64
2022/01/17 03:16:34;;;;;;;1.20;1.20;;;3.00;98.00;;;;;;5091745;28;20537;-64
2022/01/17 03:19:01;;;;;;;2.80;1.33;;;3.00;98.00;;;;;;5091962;28;20462;-64
2022/01/17 03:21:32;;;;;;;2.50;1.60;;;3.10;98.00;;;;;;5092762;28;20491;-65
2022/01/17 03:23:59;;;;;;;1.83;1.73;;;3.10;98.00;;;;;;5092515;28;20556;-65
2022/01/17 03:26:29;;;;;;;9.33;1.50;;;3.10;98.00;;;;;;5092120;28;20559;-64
2022/01/17 03:29:01;;;;;;;1.57;1.53;;;3.10;98.00;;;;;;5092450;28;20539;-65
2022/01/17 03:31:28;;;;;;;1.17;1.17;;;3.10;98.00;;;;;;5092246;28;20487;-66
2022/01/17 03:33:55;;;;;;;1.40;1.30;;;3.10;98.00;;;;;;5092331;28;20463;-64
2022/01/17 03:36:22;;;;;;;1.20;1.20;;;3.00;98.00;;;;;;5092690;28;20447;-64
2022/01/17 03:38:50;;;;;;;1.70;1.50;;;3.00;98.00;;;;;;5092556;28;20981;-64
2022/01/17 03:41:17;;;;;;;1.77;1.63;;;3.00;98.00;;;;;;5091872;28;20869;-65
2022/01/17 03:43:44;;;;;;;1.37;1.33;;;2.90;98.00;;;;;;5092370;28;20523;-66
2022/01/17 03:46:13;;;;;;;2.53;2.33;;;3.00;98.00;;;;;;5090883;28;20519;-65
2022/01/17 03:48:40;;;;;;;2.20;2.07;;;2.90;98.00;;;;;;5091944;28;20460;-65
2022/01/17 03:51:07;;;;;;;1.43;1.43;;;2.90;98.00;;;;;;5092140;28;20512;-65
2022/01/17 03:53:34;;;;;;;2.60;1.93;;;2.90;98.00;;;;;;5090816;28;20509;-65
2022/01/17 03:56:02;;;;;;;1.10;1.03;;;3.00;98.00;;;;;;5091695;28;20491;-64
2022/01/17 03:58:30;;;;;;;1.63;1.50;;;3.00;98.00;;;;;;5092177;28;20483;-65
2022/01/17 04:00:58;;;;;;;1.50;1.47;;;2.90;98.00;;;;;;5090628;28;20510;-65
2022/01/17 04:03:27;;;;;;;1.10;1.10;;;3.00;98.00;;;;;;5091730;28;20578;-64
2022/01/17 04:05:54;;;;;;;1.70;1.57;;;3.10;98.00;;;;;;5091557;28;20955;-64
2022/01/17 04:08:22;;;;;;;1.37;1.33;;;3.00;98.00;;;;;;5090781;28;20483;-64
2022/01/17 04:10:49;;;;;;;1.20;1.20;;;3.00;98.00;;;;;;5091665;28;20550;-64
2022/01/17 04:13:16;;;;;;;1.77;1.77;;;3.10;98.00;;;;;;5091746;28;20520;-64
2022/01/17 04:15:43;;;;;;;1.30;1.20;;;3.20;98.00;;;;;;5091661;28;20460;-65
2022/01/17 04:18:11;;;;;;;1.40;1.40;;;3.20;98.00;;;;;;5091675;28;20471;-64
2022/01/17 04:20:41;;;;;;;2.57;2.37;;;3.20;98.00;;;;;;5091685;28;20526;-66
2022/01/17 04:23:11;;;;;;;1.53;1.43;;;3.20;98.00;;;;;;5091645;28;21020;-65
2022/01/17 04:25:40;;;;;;;1.30;1.20;;;3.20;98.00;;;;;;5091818;28;20535;-64
2022/01/17 04:28:09;;;;;;;2.17;1.57;;;3.20;98.00;;;;;;5091531;28;20491;-64
2022/01/17 04:30:36;;;;;;;1.30;1.27;;;3.10;98.00;;;;;;5091707;28;20491;-64
2022/01/17 04:33:04;;;;;;;1.87;1.50;;;3.10;98.00;;;;;;5091692;28;20562;-65
2022/01/17 04:35:32;;;;;;;1.60;1.50;;;3.00;98.00;;;;;;5091667;28;20483;-65
2022/01/17 04:38:04;;;;;;;1.30;1.27;;;3.00;98.00;;;;;;5091767;28;20498;-65
2022/01/17 04:40:35;;;;;;;1.20;1.10;;;3.10;98.00;;;;;;5091600;28;20491;-64
2022/01/17 04:43:04;;;;;;;2.27;2.10;;;3.20;98.00;;;;;;5091840;28;20934;-64
2022/01/17 04:45:32;;;;;;;1.20;1.20;;;3.30;98.00;;;;;;5090682;28;20533;-64
2022/01/17 04:48:00;;;;;;;2.60;2.40;;;3.50;98.00;;;;;;5090023;28;20495;-66
2022/01/17 04:50:29;;;;;;;2.23;1.90;;;3.60;98.00;;;;;;5091655;28;20495;-64
2022/01/17 04:52:57;;;;;;;2.80;1.93;;;3.70;98.00;;;;;;5093409;28;20505;-66
2022/01/17 04:55:28;;;;;;;1.27;1.27;;;3.50;98.00;;;;;;5095657;28;20501;-65
2022/01/17 04:57:56;;;;;;;2.50;2.40;;;3.40;98.00;;;;;;5094295;28;21056;-65
2022/01/17 05:00:24;;;;;;;1.50;1.50;;;3.40;98.00;;;;;;5095493;28;20542;-63
2022/01/17 05:02:51;;;;;;;1.43;1.30;;;3.40;98.00;;;;;;5095702;28;21015;-64
2022/01/17 05:05:19;;;;;;;1.30;1.20;;;3.40;98.00;;;;;;5093919;28;20513;-66
2022/01/17 05:07:46;;;;;;;1.43;1.33;;;3.40;98.00;;;;;;5095378;28;20491;-66
2022/01/17 05:10:15;;;;;;;1.30;1.10;;;3.40;98.00;;;;;;5094936;28;20502;-65
2022/01/17 05:12:44;;;;;;;4.50;2.03;;;3.50;98.00;;;;;;5094880;28;20456;-65
2022/01/17 05:15:23;;;;;;;2.13;1.47;;;3.60;98.00;;;;;;5094742;28;20858;-64
2022/01/17 05:17:59;;;;;;;1.97;1.90;;;3.60;98.00;;;;;;5094616;28;20458;-64
2022/01/17 05:20:26;;;;;;;1.20;1.10;;;3.50;98.00;;;;;;5094673;28;20494;-65
2022/01/17 05:22:54;;;;;;;1.70;1.60;;;3.50;98.00;;;;;;5094967;28;20481;-64
2022/01/17 05:25:21;;;;;;;1.20;1.10;;;3.40;98.00;;;;;;5094556;28;20805;-65
2022/01/17 05:27:51;;;;;;;2.47;1.73;;;3.40;98.00;;;;;;5094573;28;20974;-65
2022/01/17 05:30:19;;;;;;;1.10;1.00;;;3.40;98.00;;;;;;5094664;28;20495;-64
2022/01/17 05:32:48;;;;;;;1.60;1.50;;;3.30;98.00;;;;;;5094761;28;20487;-65
2022/01/17 05:35:15;;;;;;;1.80;1.53;;;3.30;98.00;;;;;;5093168;28;20961;-65
2022/01/17 05:37:44;;;;;;;1.63;1.43;;;3.40;98.00;;;;;;5094494;28;20483;-65
2022/01/17 05:40:13;;;;;;;3.90;1.87;;;3.50;98.00;;;;;;5094392;28;20999;-65
2022/01/17 05:42:40;;;;;;;2.40;2.30;;;3.40;98.00;;;;;;5094534;28;20491;-65
2022/01/17 05:45:11;;;;;;;5.13;3.30;;;3.40;98.00;;;;;;5094169;28;20511;-65
2022/01/17 05:47:38;;;;;;;1.73;1.57;;;3.40;98.00;;;;;;5094190;28;20925;-64
2022/01/17 05:50:06;;;;;;;1.67;1.63;;;3.40;98.00;;;;;;5094131;28;21003;-64
2022/01/17 05:52:34;;;;;;;1.67;1.60;;;3.40;98.00;;;;;;5093066;28;20517;-64
2022/01/17 05:55:01;;;;;;;2.03;1.40;;;3.40;98.00;;;;;;5094133;28;20881;-64
2022/01/17 05:57:28;;;;;;;1.30;1.30;;;3.40;98.00;;;;;;5094218;28;20456;-64
2022/01/17 05:59:56;;;;;;;1.40;1.30;;;3.60;98.00;;;;;;5094031;28;20495;-64
2022/01/17 06:02:24;;;;;;;1.20;1.17;;;3.80;98.00;;;;;;5093880;28;20513;-64
2022/01/17 06:04:51;;;;;;;1.73;1.60;;;3.90;98.00;;;;;;5093119;28;20483;-64
2022/01/17 06:07:19;;;;;;;1.63;1.60;;;3.90;98.00;;;;;;5094066;28;20460;-65
2022/01/17 06:09:46;;;;;;;1.83;1.73;;;4.00;98.00;;;;;;5093969;28;20503;-65
2022/01/17 06:12:14;;;;;;;1.47;1.40;;;4.00;98.00;;;;;;5093931;28;20596;-64
2022/01/17 06:14:40;;;;;;;1.10;1.10;;;4.00;98.00;;;;;;5092301;28;20483;-65
2022/01/17 06:17:08;;;;;;;1.93;1.50;;;4.10;98.00;;;;;;5093954;28;20486;-65
2022/01/17 06:19:36;;;;;;;4.27;2.03;;;4.10;98.00;;;;;;5093926;28;20455;-64
2022/01/17 06:22:04;;;;;;;1.30;1.20;;;4.00;98.00;;;;;;5093884;28;20484;-64
2022/01/17 06:24:32;;;;;;;1.40;1.27;;;3.80;98.00;;;;;;5092630;28;20538;-65
2022/01/17 06:26:59;;;;;;;1.20;1.20;;;3.70;98.00;;;;;;5093901;28;20460;-65
2022/01/17 06:29:27;;;;;;;1.80;1.50;;;3.60;98.00;;;;;;5093448;28;20455;-66
2022/01/17 06:31:54;;;;;;;1.20;1.00;;;3.60;98.00;;;;;;5093714;28;20487;-65
2022/01/17 06:34:21;;;;;;;1.47;1.40;;;3.50;98.00;;;;;;5093322;28;20456;-64
2022/01/17 06:36:49;;;;;;;2.47;2.20;;;3.50;98.00;;;;;;5093411;28;20454;-65
2022/01/17 06:39:16;;;;;;;2.37;1.60;;;3.50;98.00;;;;;;5093421;28;20559;-64
2022/01/17 06:41:43;;;;;;;1.27;1.20;;;3.40;98.00;;;;;;5093249;28;20476;-65
2022/01/17 06:44:10;;;;;;;1.33;1.27;;;3.40;98.00;;;;;;5092898;28;20560;-64
2022/01/17 06:46:37;;;;;;;1.40;1.23;;;3.50;98.00;;;;;;5091917;28;20521;-64
2022/01/17 06:49:05;;;;;;;3.50;2.50;;;3.50;98.00;;;;;;5093182;28;20457;-64
2022/01/17 06:51:32;;;;;;;1.30;1.20;;;3.60;98.00;;;;;;5093275;28;20488;-64
2022/01/17 06:54:00;;;;;;;1.50;1.30;;;3.60;98.00;;;;;;5092919;28;20493;-65
2022/01/17 06:56:27;;;;;;;1.73;1.63;;;3.50;98.00;;;;;;5093152;28;20542;-65
2022/01/17 06:58:55;;;;;;;3.53;1.47;;;3.40;98.00;;;;;;5092902;28;20491;-65
2022/01/17 07:01:22;;;;;;;2.30;1.37;;;3.40;98.00;;;;;;5092681;28;20809;-65
2022/01/17 07:03:51;;;;;;;1.87;1.77;;;3.30;98.00;;;;;;5092884;28;20930;-64
2022/01/17 07:06:18;;;;;;;2.23;2.10;;;3.20;98.00;;;;;;5092716;28;20535;-64
2022/01/17 07:08:45;;;;;;;1.10;1.03;;;3.20;98.00;;;;;;5092816;28;20966;-65
2022/01/17 07:11:14;;;;;;;1.83;1.77;;;3.20;98.00;;;;;;5092174;28;20548;-65
2022/01/17 07:13:41;;;;;;;1.27;1.20;;;3.30;98.00;;;;;;5092531;28;20488;-65
2022/01/17 07:16:10;;;;;;;2.03;1.90;;;3.20;98.00;;;;;;5091502;28;20531;-65
2022/01/17 07:18:37;;;;;;;2.27;2.10;;;3.20;98.00;;;;;;5092643;28;20467;-64
2022/01/17 07:21:04;;;;;;;1.40;1.23;;;3.20;98.00;;;;;;5092461;28;20950;-65
2022/01/17 07:23:31;;;;;;;2.63;1.70;;;3.30;98.00;;;;;;5092448;28;20543;-65
2022/01/17 07:25:58;;;;;;;1.73;1.63;;;3.40;98.00;;;;;;5092346;28;20515;-65
2022/01/17 07:28:27;;;;;;;7.23;2.17;;;3.50;98.00;;;;;;5092439;28;20877;-65
2022/01/17 07:30:54;;;;;;;1.30;1.30;;;3.50;98.00;;;;;;5092182;28;20465;-64
2022/01/17 07:33:26;;;;;;;1.50;1.33;;;3.40;98.00;;;;;;5092428;28;20499;-64
2022/01/17 07:35:53;;;;;;;1.20;1.13;;;3.50;98.00;;;;;;5092264;28;20467;-65
2022/01/17 07:38:20;;;;;;;1.10;1.00;;;3.60;98.00;;;;;;5092313;28;20488;-65
2022/01/17 07:40:47;;;;;;;1.47;1.27;;;3.60;98.00;;;;;;5091079;28;20456;-66
2022/01/17 07:43:15;;;;;;;2.60;2.30;;;3.40;98.00;;;;;;5092194;28;20494;-64
2022/01/17 07:45:55;;;;;;;1.10;1.10;;;3.50;98.00;;;;;;5092187;28;20584;-65
2022/01/17 07:48:57;;;;;;;1.20;1.20;;;3.40;98.00;;;;;;5092291;28;20870;-65
2022/01/17 07:51:27;;;;;;;3.87;2.33;;;3.40;98.00;;;;;;5092077;28;20539;-65
2022/01/17 07:53:56;;;;;;;1.20;1.10;;;3.40;98.00;;;;;;5092114;28;20513;-64
2022/01/17 07:56:23;;;;;;;3.97;1.83;;;3.30;98.00;;;;;;5092040;28;20509;-65
2022/01/17 07:58:50;;;;;;;1.80;1.43;;;3.40;98.00;;;;;;5091886;28;20528;-65
2022/01/17 08:01:19;;;;;;;1.80;1.70;;;3.50;98.00;;;;;;5091634;28;20884;-65
2022/01/17 08:03:46;;;;;;;1.10;1.00;;;3.60;98.00;;;;;;5091997;28;20448;-66
2022/01/17 08:06:13;;;;;;;1.20;1.10;;;3.80;98.00;;;;;;5091535;28;20516;-65
2022/01/17 08:08:40;;;;;;;1.20;1.00;;;4.00;98.00;;;;;;5091404;28;20529;-65
2022/01/17 08:11:08;;;;;;;1.20;1.10;;;4.10;98.00;;;;;;5090870;28;20898;-67
2022/01/17 08:13:36;;;;;;;1.20;1.10;;;4.20;98.00;;;;;;5096350;28;20546;-66
2022/01/17 08:16:03;;;;;;;1.87;1.47;;;4.20;98.00;;;;;;5101231;28;20484;-65
2022/01/17 08:18:32;;;;;;;1.50;1.20;;;4.10;98.00;;;;;;5105526;28;20464;-67
2022/01/17 08:21:00;;;;;;;1.93;1.47;;;4.00;98.00;;;;;;5099625;28;20564;-67
2022/01/17 08:23:27;;;;;;;2.03;1.60;;;3.90;98.00;;;;;;5099616;28;21071;-66
2022/01/17 08:25:54;;;;;;;1.40;1.30;;;3.90;98.00;;;;;;5097921;28;20534;-66
2022/01/17 08:28:22;;;;;;;1.50;1.43;;;3.90;98.00;;;;;;5107418;28;21035;-66
2022/01/17 08:30:49;;;;;;;2.57;2.43;;;4.20;98.00;;;;;;5102813;28;20545;-67
2022/01/17 08:33:19;;;;;;;1.60;1.10;;;4.30;98.00;;;;;;5094465;28;20487;-65
2022/01/17 08:35:48;;;;;;;1.20;1.10;;;4.20;98.00;;;;;;5102688;28;20546;-65
2022/01/17 08:38:15;;;;;;;1.20;1.20;;;4.20;98.00;;;;;;5094992;28;20510;-66
2022/01/17 08:40:42;;;;;;;1.77;1.73;;;4.20;98.00;;;;;;5109546;28;20461;-65
2022/01/17 08:43:09;;;;;;;1.40;1.20;;;4.20;98.00;;;;;;5095152;28;20480;-65
2022/01/17 08:45:36;;;;;;;1.20;1.20;;;4.20;98.00;;;;;;5099880;28;21041;-65
2022/01/17 08:48:04;;;;;;;1.67;1.40;;;4.20;98.00;;;;;;5103049;28;20545;-65
2022/01/17 08:50:32;;;;;;;1.27;1.27;;;4.30;98.00;;;;;;5109817;28;20861;-66
2022/01/17 08:53:00;;;;;;;1.97;1.87;;;4.40;98.00;;;;;;5085990;28;20463;-65
2022/01/17 08:55:27;;;;;;;1.20;1.10;;;4.50;98.00;;;;;;5094914;28;20491;-66
2022/01/17 08:57:54;;;;;;;2.60;1.30;;;4.60;98.00;;;;;;5102295;28;20548;-66
2022/01/17 09:00:22;;;;;;;2.27;2.07;;;4.70;98.00;;;;;;5111001;28;20558;-65
2022/01/17 09:02:49;;;;;;;1.33;1.30;;;4.70;98.00;;;;;;5111312;28;20453;-65
2022/01/17 09:05:16;;;;;;;2.07;1.97;;;4.80;98.00;;;;;;5094393;28;20484;-65
2022/01/17 09:07:43;;;;;;;1.20;1.10;;;4.80;98.00;;;;;;5093818;28;20549;-66
2022/01/17 09:10:15;;;;;;;1.70;1.60;;;5.00;98.00;;;;;;5090394;28;20534;-64
2022/01/17 09:12:42;;;;;;;3.20;1.90;;;4.90;98.00;;;;;;5093522;28;20448;-65
2022/01/17 09:15:11;;;;;;;1.20;1.10;;;4.70;98.00;;;;;;5102694;28;20488;-66
2022/01/17 09:17:38;;;;;;;1.60;1.50;;;4.70;98.00;;;;;;5110004;28;20539;-65
2022/01/17 09:20:07;;;;;;;1.63;1.60;;;4.60;98.00;;;;;;5093813;28;20480;-66
2022/01/17 09:22:34;;;;;;;1.63;1.20;;;4.50;98.00;;;;;;5103300;28;20919;-66
2022/01/17 09:25:01;;;;;;;2.00;1.93;;;4.60;98.00;;;;;;5093336;28;20512;-66
2022/01/17 09:27:33;;;;;;;1.13;1.10;;;4.60;98.00;;;;;;5112074;28;21010;-64
2022/01/17 09:30:01;;;;;;;1.10;1.10;;;4.70;98.00;;;;;;5101611;28;20805;-65
2022/01/17 09:32:28;;;;;;;1.20;1.20;;;4.80;98.00;;;;;;5110172;28;20491;-65
2022/01/17 09:34:55;;;;;;;1.50;1.30;;;4.80;98.00;;;;;;5102525;28;20549;-66
2022/01/17 09:37:22;;;;;;;1.47;1.40;;;5.00;98.00;;;;;;5102428;28;20871;-66
2022/01/17 09:39:49;;;;;;;1.40;1.30;;;5.10;98.00;;;;;;5100632;28;20890;-65
2022/01/17 09:42:17;;;;;;;1.93;1.80;;;5.20;98.00;;;;;;5102827;28;20846;-65
2022/01/17 09:44:45;;;;;;;2.23;2.03;;;5.30;98.00;;;;;;5093873;28;20475;-67
2022/01/17 09:47:13;;;;;;;3.63;2.13;;;5.30;98.00;;;;;;5109889;28;20502;-65
2022/01/17 09:49:44;;;;;;;2.20;1.10;;;5.20;98.00;;;;;;5091792;28;20456;-67
2022/01/17 09:52:33;;;;;;;3.83;1.90;;;5.20;98.00;;;;;;5109679;28;20988;-65
2022/01/17 09:55:06;;;;;;;1.40;1.30;;;5.20;98.00;;;;;;5086721;28;20534;-65
2022/01/17 09:57:38;;;;;;;1.63;1.47;;;5.30;98.00;;;;;;5109647;28;20484;-65
2022/01/17 10:00:09;;;;;;;1.43;1.10;;;5.40;98.00;;;;;;5099550;28;20516;-65
2022/01/17 10:02:36;;;;;;;1.20;1.10;;;5.40;98.00;;;;;;5099235;28;20476;-67
2022/01/17 10:05:06;;;;;;;1.93;1.33;;;5.50;98.00;;;;;;5095356;28;20459;-65
2022/01/17 10:07:53;;;;;;;1.30;1.20;;;5.60;98.00;;;;;;5108017;28;20866;-66
2022/01/17 10:10:37;;;;;;;1.50;1.40;;;5.70;98.00;;;;;;5105275;28;20882;-65
2022/01/17 10:13:06;;;;;;;1.73;1.63;;;5.60;98.00;;;;;;5108864;28;20800;-66
2022/01/17 10:15:45;;;;;;;1.20;1.13;;;5.70;98.00;;;;;;5077279;28;20458;-65
2022/01/17 10:18:35;;;;;;;1.47;1.37;;;5.70;98.00;;;;;;5092013;28;20540;-65
2022/01/17 10:21:07;;;;;;;1.47;1.17;;;5.80;98.00;;;;;;5094070;28;20480;-65
2022/01/17 10:24:10;;;;;;;1.87;1.43;;;5.90;98.00;;;;;;5109356;28;20449;-65
2022/01/17 10:29:54;;;;;;;1.60;1.30;;;6.10;98.00;;;;;;5109352;28;20961;-67
2022/01/17 10:35:18;;;;;;;1.67;1.30;;;6.00;98.00;;;;;;5091489;28;20455;-67
2022/01/17 10:38:01;;;;;;;1.20;1.10;;;6.00;98.00;;;;;;5091655;28;20461;-66
2022/01/17 10:40:30;;;;;;;1.20;1.10;;;6.10;98.00;;;;;;5091830;28;20851;-67
2022/01/17 10:42:59;;;;;;;1.20;1.10;;;6.00;98.00;;;;;;5075607;28;20449;-66
2022/01/17 10:45:33;;;;;;;1.40;1.10;;;6.00;98.00;;;;;;5091515;28;20519;-66
2022/01/17 10:48:03;;;;;;;1.60;1.43;;;5.90;98.00;;;;;;5092628;28;20467;-65
2022/01/17 10:50:32;;;;;;;3.30;2.17;;;6.00;98.00;;;;;;5092670;28;20907;-67
2022/01/17 10:53:03;;;;;;;1.20;1.00;;;6.00;98.00;;;;;;5092961;28;20488;-66
2022/01/17 10:55:32;;;;;;;1.10;1.00;;;6.00;98.00;;;;;;5092591;28;20452;-66
2022/01/17 10:58:03;;;;;;;1.20;1.03;;;6.00;98.00;;;;;;5092856;28;20447;-67
2022/01/17 11:00:31;;;;;;;1.10;1.00;;;6.00;98.00;;;;;;5092826;28;20992;-67
2022/01/17 11:03:01;;;;;;;1.13;1.00;;;6.00;98.00;;;;;;5092974;28;20585;-65
2022/01/17 11:05:31;;;;;;;1.10;1.00;;;6.00;98.00;;;;;;5094410;28;20547;-67
2022/01/17 11:08:01;;;;;;;1.20;1.17;;;6.00;98.00;;;;;;5094678;28;20462;-65
2022/01/17 11:10:32;;;;;;;2.00;1.40;;;5.90;98.00;;;;;;5093928;28;20483;-65
2022/01/17 11:13:02;;;;;;;1.20;1.20;;;5.90;98.00;;;;;;5092536;28;20481;-65
2022/01/17 11:15:32;;;;;;;1.50;1.37;;;5.80;98.00;;;;;;5092528;28;20452;-65
2022/01/17 11:18:05;;;;;;;2.60;1.47;;;5.80;98.00;;;;;;5092570;28;20448;-66
2022/01/17 11:20:34;;;;;;;1.40;1.20;;;5.60;98.00;;;;;;5092514;28;20546;-65
2022/01/17 11:23:02;;;;;;;1.20;1.00;;;5.50;98.00;;;;;;5092433;28;20460;-66
2022/01/17 11:25:31;;;;;;;1.40;1.30;;;5.30;98.00;;;;;;5092182;28;20453;-65
2022/01/17 11:27:59;;;;;;;1.80;1.47;;;5.20;98.00;;;;;;5092359;28;20499;-65
2022/01/17 11:30:26;;;;;;;1.10;0.90;;;5.20;98.00;;;;;;5092334;28;20498;-65
2022/01/17 11:32:55;;;;;;;1.20;1.20;;;5.10;98.00;;;;;;5092410;28;20495;-65
2022/01/17 11:35:25;;;;;;;1.40;1.20;;;5.10;98.00;;;;;;5092328;28;20535;-65
2022/01/17 11:37:58;;;;;;;1.20;1.10;;;5.10;98.00;;;;;;5092202;28;20504;-65
2022/01/17 11:40:30;;;;;;;1.30;1.10;;;5.20;98.00;;;;;;5091891;28;20463;-65
2022/01/17 11:42:59;;;;;;;1.77;1.47;;;5.20;98.00;;;;;;5090997;28;20464;-66
2022/01/17 11:45:47;;;;;;;1.30;1.27;;;5.30;98.00;;;;;;5092184;28;20457;-67
2022/01/17 11:48:20;;;;;;;1.20;1.03;;;5.30;98.00;;;;;;5086848;28;21055;-67
2022/01/17 11:50:52;;;;;;;1.50;1.10;;;5.30;98.00;;;;;;5092265;28;20496;-67
2022/01/17 11:53:45;;;;;;;1.20;1.20;;;5.30;98.00;;;;;;5091393;28;20487;-66
2022/01/17 11:56:16;;;;;;;1.20;1.20;;;5.30;98.00;;;;;;5091668;28;20453;-67
2022/01/17 11:58:46;;;;;;;1.10;1.10;;;5.20;98.00;;;;;;5092573;28;20833;-66
2022/01/17 12:01:20;;;;;;;1.20;1.00;;;5.30;98.00;;;;;;5091806;28;20502;-67
2022/01/17 12:03:50;;;;;;;1.10;1.00;;;5.30;98.00;;;;;;5090894;28;21332;-66
2022/01/17 12:06:32;;;;;;;1.10;1.00;;;5.40;98.00;;;;;;5091401;28;20524;-66
2022/01/17 12:09:21;;;;;;;1.10;1.00;;;5.30;98.00;;;;;;5091882;28;20550;-66
2022/01/17 12:12:13;;;;;;;1.70;1.60;;;5.30;98.00;;;;;;5091545;28;20492;-65
2022/01/17 12:14:44;;;;;;;1.10;1.00;;;5.30;98.00;;;;;;5091687;28;20459;-67
2022/01/17 12:17:28;;;;;;;1.10;1.00;;;5.20;98.00;;;;;;5091668;28;20485;-66
2022/01/17 12:20:21;;;;;;;1.30;1.30;;;5.30;98.00;;;;;;5091338;28;20464;-66
2022/01/17 12:23:22;;;;;;;3.73;2.03;;;5.30;98.00;;;;;;5091603;28;20453;-67
2022/01/17 12:25:49;;;;;;;2.23;1.67;;;5.30;98.00;;;;;;5091422;28;20481;-66
2022/01/17 12:28:27;;;;;;;1.10;1.00;;;5.30;98.00;;;;;;5091574;28;20488;-65
2022/01/17 12:30:58;;;;;;;1.10;1.10;;;5.40;98.00;;;;;;5091498;28;20778;-66
2022/01/17 12:33:37;;;;;;;1.10;0.97;;;5.40;98.00;;;;;;5091678;28;20492;-65
2022/01/17 12:36:06;;;;;;;1.20;1.20;;;5.30;98.00;;;;;;5091429;28;20456;-67
2022/01/17 12:38:39;;;;;;;2.23;1.43;;;5.20;98.00;;;;;;5091488;28;20493;-66
2022/01/17 12:41:14;;;;;;;1.10;1.00;;;5.20;98.00;;;;;;5091497;28;20456;-66
2022/01/17 12:43:41;;;;;;;1.43;1.23;;;5.30;98.00;;;;;;5090358;28;20455;-65
2022/01/17 12:46:10;;;;;;;1.20;1.10;;;5.40;98.00;;;;;;5091318;28;20519;-67
2022/01/17 12:48:39;;;;;;;2.27;1.67;;;5.40;98.00;;;;;;5091289;28;20819;-64
2022/01/17 12:51:08;;;;;;;3.10;1.90;;;5.80;98.00;;;;;;5089887;28;20510;-65
2022/01/17 12:53:38;;;;;;;1.97;1.60;;;6.70;98.00;;;;;;5091618;28;20990;-65
2022/01/17 12:56:07;;;;;;;1.40;1.30;;;7.30;98.00;;;;;;5091393;28;20542;-64
2022/01/17 12:58:36;;;;;;;2.47;1.23;;;7.10;98.00;;;;;;5091266;28;20539;-65
2022/01/17 13:01:07;;;;;;;1.17;1.00;;;6.90;98.00;;;;;;5091384;28;20481;-65
2022/01/17 13:03:37;;;;;;;1.80;1.30;;;6.70;98.00;;;;;;5091353;28;20482;-66
2022/01/17 13:06:05;;;;;;;3.00;1.67;;;6.40;98.00;;;;;;5089922;28;20982;-65
2022/01/17 13:08:33;;;;;;;1.10;1.00;;;6.30;98.00;;;;;;5091554;28;20455;-65
2022/01/17 13:11:12;;;;;;;1.10;1.00;;;6.10;98.00;;;;;;5091321;28;20508;-66
2022/01/17 13:13:45;;;;;;;1.20;1.10;;;6.00;98.00;;;;;;5092560;28;20465;-65
2022/01/17 13:16:13;;;;;;;1.43;1.37;;;6.00;98.00;;;;;;5095163;28;20811;-66
2022/01/17 13:18:41;;;;;;;1.20;1.10;;;6.00;98.00;;;;;;5094659;28;20452;-66
2022/01/17 13:21:08;;;;;;;1.50;1.40;;;5.90;98.00;;;;;;5094350;28;20544;-65
2022/01/17 13:23:44;;;;;;;1.10;0.93;;;5.90;98.00;;;;;;5094563;28;20511;-65
2022/01/17 13:26:14;;;;;;;1.73;1.53;;;5.90;98.00;;;;;;5094427;28;20507;-65